createdAt,value
2016-11-06T11:04:56.733Z,64.09
2016-11-06T11:05:22.328Z,64.18
2016-11-06T11:05:47.913Z,63.89
2016-11-06T11:06:13.471Z,64.09
2016-11-06T11:06:39.027Z,63.99
2016-11-06T11:07:04.679Z,64.18
2016-11-06T11:07:30.234Z,63.6
2016-11-06T11:07:55.790Z,63.6
2016-11-06T11:08:21.337Z,64.09
2016-11-06T11:08:46.890Z,63.7
2016-11-06T11:09:12.466Z,63.51
2016-11-06T11:09:38.115Z,63.41
2016-11-06T11:10:03.722Z,63.41
2016-11-06T11:10:29.370Z,63.79
2016-11-06T11:10:54.919Z,63.6
2016-11-06T11:11:20.464Z,63.22
2016-11-06T11:11:46.024Z,63.12
2016-11-06T11:12:11.568Z,63.12
2016-11-06T11:12:37.174Z,63.32
2016-11-06T11:13:02.733Z,63.25
2016-11-06T11:13:28.289Z,63.15
2016-11-06T11:13:53.940Z,62.93
2016-11-06T11:14:19.500Z,62.77
2016-11-06T11:14:45.074Z,63.12
2016-11-06T11:15:10.753Z,63.15
2016-11-06T11:15:36.414Z,63.06
2016-11-06T11:16:01.974Z,62.77
2016-11-06T11:16:27.600Z,63.06
2016-11-06T11:16:53.179Z,62.87
2016-11-06T11:17:18.769Z,63.06
2016-11-06T11:17:44.349Z,63.35
2016-11-06T11:18:10.017Z,62.48
2016-11-06T11:18:35.573Z,62.58
2016-11-06T11:19:01.132Z,62.48
2016-11-06T11:19:26.721Z,62.29
2016-11-06T11:19:52.263Z,62.68
2016-11-06T11:20:17.867Z,62.29
2016-11-06T11:20:43.479Z,62.38
2016-11-06T11:21:09.072Z,62.48
2016-11-06T11:21:34.647Z,62.58
2016-11-06T11:22:00.214Z,62.1
2016-11-06T11:22:25.794Z,62.68
2016-11-06T11:22:51.458Z,62.38
2016-11-06T11:23:17.069Z,62.38
2016-11-06T11:23:42.644Z,62.38
2016-11-06T11:24:08.230Z,62.38
2016-11-06T11:24:33.882Z,62.68
2016-11-06T11:24:59.461Z,63.06
2016-11-06T11:25:25.046Z,62.58
2016-11-06T11:25:50.634Z,62.96
2016-11-06T11:26:16.181Z,63.06
2016-11-06T11:26:41.767Z,62.96
2016-11-06T11:27:07.399Z,62.87
2016-11-06T11:27:33.044Z,63.06
2016-11-06T11:27:58.638Z,63.15
2016-11-06T11:28:24.196Z,63.15
2016-11-06T11:28:49.762Z,62.96
2016-11-06T11:29:15.332Z,63.06
2016-11-06T11:29:40.890Z,62.96
2016-11-06T11:30:06.455Z,63.25
2016-11-06T11:30:32.029Z,63.06
2016-11-06T11:30:57.608Z,63.02
2016-11-06T11:31:23.201Z,62.84
2016-11-06T11:31:48.766Z,62.93
2016-11-06T11:32:14.361Z,63.51
2016-11-06T11:32:39.989Z,63.41
2016-11-06T11:33:05.584Z,63.41
2016-11-06T11:33:31.178Z,63.22
2016-11-06T11:33:56.835Z,63.22
2016-11-06T11:34:22.411Z,63.32
2016-11-06T11:34:47.965Z,63.12
2016-11-06T11:35:13.545Z,63.22
2016-11-06T11:35:39.080Z,63.41
2016-11-06T11:36:04.653Z,63.22
2016-11-06T11:36:30.220Z,63.32
2016-11-06T11:36:55.779Z,63.41
2016-11-06T11:37:21.389Z,63.51
2016-11-06T11:37:46.968Z,63.79
2016-11-06T11:38:12.547Z,63.51
2016-11-06T11:38:38.114Z,63.6
2016-11-06T11:39:03.764Z,63.41
2016-11-06T11:39:29.351Z,63.41
2016-11-06T11:39:54.924Z,63.41
2016-11-06T11:40:20.478Z,63.51
2016-11-06T11:40:46.213Z,63.22
2016-11-06T11:41:11.829Z,63.22
2016-11-06T11:41:37.384Z,63.22
2016-11-06T11:42:02.970Z,63.32
2016-11-06T11:42:28.524Z,63.22
2016-11-06T11:42:54.089Z,63.41
2016-11-06T11:43:19.674Z,63.41
2016-11-06T11:43:45.284Z,63.22
2016-11-06T11:44:10.839Z,63.12
2016-11-06T11:44:36.413Z,63.51
2016-11-06T11:45:01.991Z,63.12
2016-11-06T11:45:27.582Z,63.22
2016-11-06T11:45:53.166Z,63.32
2016-11-06T11:46:18.724Z,63.22
2016-11-06T11:46:44.302Z,63.22
2016-11-06T11:47:09.875Z,63.12
2016-11-06T11:47:35.439Z,63.22
2016-11-06T11:48:01.034Z,63.12
2016-11-06T11:48:26.597Z,63.22
2016-11-06T11:48:52.169Z,63.22
2016-11-06T11:49:17.762Z,63.51
2016-11-06T11:49:43.320Z,63.12
2016-11-06T11:50:08.855Z,63.6
2016-11-06T11:50:34.434Z,62.87
2016-11-06T11:50:59.998Z,62.93
2016-11-06T11:51:25.618Z,62.84
2016-11-06T11:51:51.179Z,62.84
2016-11-06T11:52:16.769Z,62.84
2016-11-06T11:52:42.330Z,62.74
2016-11-06T11:53:07.919Z,62.74
2016-11-06T11:53:33.501Z,63.6
2016-11-06T11:53:59.071Z,63.51
2016-11-06T11:54:24.727Z,63.22
2016-11-06T11:54:50.275Z,63.02
2016-11-06T11:55:15.859Z,63.12
2016-11-06T11:55:41.429Z,63.32
2016-11-06T11:56:07.135Z,63.32
2016-11-06T11:56:32.677Z,63.41
2016-11-06T11:56:58.266Z,63.22
2016-11-06T11:57:23.939Z,63.02
2016-11-06T11:57:49.544Z,63.22
2016-11-06T11:58:15.093Z,63.51
2016-11-06T11:58:40.692Z,63.41
2016-11-06T11:59:06.255Z,63.22
2016-11-06T11:59:31.793Z,63.51
2016-11-06T11:59:57.344Z,63.6
2016-11-06T12:00:22.897Z,63.7
2016-11-06T12:00:48.459Z,63.6
2016-11-06T12:01:14.085Z,63.7
2016-11-06T12:01:39.670Z,63.41
2016-11-06T12:02:05.209Z,63.51
2016-11-06T12:02:30.806Z,63.99
2016-11-06T12:02:56.416Z,63.32
2016-11-06T12:03:21.982Z,64.09
2016-11-06T12:03:47.567Z,64.09
2016-11-06T12:04:13.150Z,64.28
2016-11-06T12:04:38.729Z,64.09
2016-11-06T12:05:04.311Z,63.89
2016-11-06T12:05:29.879Z,64.09
2016-11-06T12:05:55.439Z,64.09
2016-11-06T12:06:21.003Z,64.18
2016-11-06T12:06:46.633Z,63.89
2016-11-06T12:07:12.195Z,63.6
2016-11-06T12:07:37.767Z,63.79
2016-11-06T12:08:03.428Z,64.09
2016-11-06T12:08:29.001Z,63.99
2016-11-06T12:08:54.690Z,64.09
2016-11-06T12:09:20.255Z,64.05
2016-11-06T12:09:45.826Z,63.96
2016-11-06T12:10:11.389Z,63.96
2016-11-06T12:11:24.994Z,63.96
2016-11-06T12:11:50.533Z,63.99
2016-11-06T12:12:16.098Z,64.56
2016-11-06T12:12:41.722Z,64.72
2016-11-06T12:13:07.300Z,64.63
2016-11-06T12:13:32.866Z,64.53
2016-11-06T12:13:58.427Z,64.53
2016-11-06T12:14:24.106Z,64.63
2016-11-06T12:14:49.709Z,64.63
2016-11-06T12:15:15.261Z,64.43
2016-11-06T12:15:40.816Z,64.43
2016-11-06T12:16:06.471Z,64.43
2016-11-06T12:16:32.019Z,64.25
2016-11-06T12:17:40.401Z,64.25
2016-11-06T12:18:05.989Z,64.43
2016-11-06T12:18:31.544Z,64.63
2016-11-06T12:18:57.114Z,64.34
2016-11-06T12:19:22.673Z,64.34
2016-11-06T12:19:48.249Z,64.43
2016-11-06T12:20:13.812Z,64.43
2016-11-06T12:20:39.375Z,64.43
2016-11-06T12:21:04.936Z,64.53
2016-11-06T12:21:30.495Z,64.53
2016-11-06T12:21:56.143Z,64.25
2016-11-06T12:22:21.690Z,64.53
2016-11-06T12:22:47.317Z,64.43
2016-11-06T12:23:12.866Z,64.53
2016-11-06T12:23:38.522Z,64.63
2016-11-06T12:24:04.072Z,64.72
2016-11-06T12:24:29.749Z,64.72
2016-11-06T12:24:55.314Z,65.11
2016-11-06T12:25:20.885Z,64.82
2016-11-06T12:25:46.428Z,65.01
2016-11-06T12:26:11.992Z,64.82
2016-11-06T12:26:37.548Z,64.92
2016-11-06T12:27:03.135Z,64.53
2016-11-06T12:27:28.684Z,64.82
2016-11-06T12:27:54.285Z,64.92
2016-11-06T12:28:19.943Z,64.82
2016-11-06T12:28:45.520Z,64.82
2016-11-06T12:29:11.072Z,64.92
2016-11-06T12:29:36.638Z,64.82
2016-11-06T12:30:02.339Z,64.82
2016-11-06T12:30:27.907Z,65.11
2016-11-06T12:30:53.463Z,64.82
2016-11-06T12:31:19.021Z,64.92
2016-11-06T12:31:44.662Z,65.11
2016-11-06T12:32:10.227Z,65.11
2016-11-06T12:32:35.803Z,65.11
2016-11-06T12:33:01.519Z,65.11
2016-11-06T12:33:27.087Z,65.11
2016-11-06T12:33:52.672Z,65.11
2016-11-06T12:34:18.229Z,65.11
2016-11-06T12:34:43.796Z,65.11
2016-11-06T12:35:09.370Z,65.11
2016-11-06T12:35:34.941Z,65.11
2016-11-06T12:36:33.045Z,65.3
2016-11-06T12:36:58.630Z,65.01
2016-11-06T12:37:24.187Z,65.01
2016-11-06T12:37:49.721Z,65.2
2016-11-06T12:38:15.282Z,65.4
2016-11-06T12:38:40.873Z,65.01
2016-11-06T12:39:06.428Z,65.01
2016-11-06T12:39:31.995Z,65.01
2016-11-06T12:39:57.525Z,65.11
2016-11-06T12:40:23.079Z,64.92
2016-11-06T12:40:48.679Z,64.92
2016-11-06T12:41:14.302Z,64.82
2016-11-06T12:41:39.871Z,64.82
2016-11-06T12:42:05.474Z,65.01
2016-11-06T12:42:31.041Z,65.01
2016-11-06T12:42:56.594Z,65.11
2016-11-06T12:43:22.146Z,65.01
2016-11-06T12:43:47.707Z,64.92
2016-11-06T12:44:13.292Z,64.92
2016-11-06T12:44:38.860Z,64.82
2016-11-06T12:45:04.498Z,65.4
2016-11-06T12:45:30.096Z,65.59
2016-11-06T12:45:55.655Z,65.59
2016-11-06T12:46:21.215Z,65.4
2016-11-06T12:46:46.764Z,65.3
2016-11-06T12:47:12.326Z,65.3
2016-11-06T12:47:37.914Z,65.3
2016-11-06T12:48:03.463Z,65.3
2016-11-06T12:48:29.047Z,65.11
2016-11-06T12:48:54.617Z,65.3
2016-11-06T12:49:20.199Z,65.3
2016-11-06T12:49:45.860Z,65.2
2016-11-06T12:50:11.526Z,65.01
2016-11-06T12:50:37.100Z,65.2
2016-11-06T12:51:02.678Z,65.11
2016-11-06T12:51:28.248Z,65.01
2016-11-06T12:51:53.824Z,65.3
2016-11-06T12:52:19.386Z,65.2
2016-11-06T12:52:44.970Z,65.2
2016-11-06T12:53:10.535Z,65.4
2016-11-06T12:53:36.098Z,65.3
2016-11-06T12:54:01.674Z,65.59
2016-11-06T12:54:27.230Z,65.4
2016-11-06T12:54:52.868Z,65.3
2016-11-06T12:55:18.435Z,65.2
2016-11-06T12:55:44.002Z,65.11
2016-11-06T12:56:09.567Z,65.2
2016-11-06T12:56:35.150Z,65.4
2016-11-06T12:57:00.714Z,65.49
2016-11-06T12:57:26.287Z,65.3
2016-11-06T12:57:51.859Z,65.59
2016-11-06T12:58:17.412Z,65.49
2016-11-06T12:58:43.034Z,65.59
2016-11-06T12:59:08.618Z,65.49
2016-11-06T12:59:34.182Z,65.49
2016-11-06T12:59:59.831Z,65.59
2016-11-06T13:00:25.428Z,65.59
2016-11-06T13:00:50.981Z,65.49
2016-11-06T13:01:16.534Z,65.4
2016-11-06T13:01:42.163Z,65.4
2016-11-06T13:02:07.743Z,65.49
2016-11-06T13:02:33.291Z,65.3
2016-11-06T13:02:58.994Z,65.59
2016-11-06T13:03:24.548Z,65.59
2016-11-06T13:03:50.107Z,65.59
2016-11-06T13:04:15.814Z,65.3
2016-11-06T13:04:41.411Z,65.4
2016-11-06T13:05:06.976Z,65.3
2016-11-06T13:05:32.567Z,65.3
2016-11-06T13:05:59.116Z,65.3
2016-11-06T13:06:24.676Z,65.59
2016-11-06T13:07:22.927Z,65.4
2016-11-06T13:07:48.516Z,65.4
2016-11-06T13:08:14.078Z,65.4
2016-11-06T13:08:39.621Z,65.4
2016-11-06T13:09:05.259Z,65.4
2016-11-06T13:09:30.863Z,65.4
2016-11-06T13:09:56.419Z,65.4
2016-11-06T13:10:21.981Z,65.49
2016-11-06T13:10:47.548Z,65.49
2016-11-06T13:11:13.101Z,65.59
2016-11-06T13:11:38.701Z,65.59
2016-11-06T13:12:04.249Z,65.49
2016-11-06T13:12:29.831Z,65.59
2016-11-06T13:12:55.422Z,65.49
2016-11-06T13:13:20.980Z,65.97
2016-11-06T13:13:46.548Z,65.49
2016-11-06T13:14:12.242Z,65.49
2016-11-06T13:14:37.774Z,65.97
2016-11-06T13:15:03.357Z,65.59
2016-11-06T13:15:29.022Z,65.59
2016-11-06T13:15:54.628Z,65.59
2016-11-06T13:16:20.182Z,65.69
2016-11-06T13:16:45.871Z,65.49
2016-11-06T13:17:11.436Z,65.69
2016-11-06T13:17:36.993Z,65.88
2016-11-06T13:18:02.591Z,65.49
2016-11-06T13:18:28.140Z,65.88
2016-11-06T13:18:53.711Z,65.78
2016-11-06T13:19:19.283Z,65.78
2016-11-06T13:19:44.823Z,65.59
2016-11-06T13:20:10.442Z,65.59
2016-11-06T13:20:36.046Z,65.78
2016-11-06T13:21:01.666Z,66.07
2016-11-06T13:21:27.171Z,66.07
2016-11-06T13:21:52.742Z,65.69
2016-11-06T13:22:18.372Z,65.69
2016-11-06T13:22:43.978Z,65.78
2016-11-06T13:23:09.617Z,65.78
2016-11-06T13:23:35.217Z,65.65
2016-11-06T13:24:00.783Z,65.59
2016-11-06T13:24:26.328Z,65.59
2016-11-06T13:24:51.997Z,65.78
2016-11-06T13:25:17.615Z,66.07
2016-11-06T13:25:43.174Z,65.84
2016-11-06T13:26:08.748Z,66.13
2016-11-06T13:26:34.380Z,65.69
2016-11-06T13:26:59.961Z,66.03
2016-11-06T13:28:08.296Z,65.69
2016-11-06T13:28:33.854Z,65.88
2016-11-06T13:28:59.465Z,65.88
2016-11-06T13:29:25.038Z,65.84
2016-11-06T13:29:50.692Z,66.13
2016-11-06T13:30:16.288Z,65.88
2016-11-06T13:30:41.860Z,66.13
2016-11-06T13:31:07.488Z,65.84
2016-11-06T13:31:33.044Z,66.23
2016-11-06T13:31:58.609Z,66.36
2016-11-06T13:32:24.191Z,66.36
2016-11-06T13:32:49.729Z,66.36
2016-11-06T13:33:15.289Z,66.42
2016-11-06T13:33:40.897Z,66.07
2016-11-06T13:34:06.470Z,66.16
2016-11-06T13:34:32.041Z,66.13
2016-11-06T13:34:57.646Z,66.13
2016-11-06T13:35:23.251Z,66.36
2016-11-06T13:35:48.842Z,66.23
2016-11-06T13:36:14.430Z,66.36
2016-11-06T13:36:40.040Z,66.23
2016-11-06T13:37:05.603Z,66.33
2016-11-06T13:37:31.216Z,66.36
2016-11-06T13:37:56.839Z,66.26
2016-11-06T13:38:22.457Z,65.94
2016-11-06T13:38:48.006Z,65.75
2016-11-06T13:39:13.600Z,65.94
2016-11-06T13:39:39.294Z,65.75
2016-11-06T13:40:04.879Z,65.84
2016-11-06T13:40:30.455Z,65.94
2016-11-06T13:40:56.048Z,65.78
2016-11-06T13:41:21.668Z,65.94
2016-11-06T13:41:47.359Z,65.94
2016-11-06T13:42:12.901Z,65.97
2016-11-06T13:42:38.459Z,65.97
2016-11-06T13:43:04.032Z,65.75
2016-11-06T13:43:29.637Z,65.88
2016-11-06T13:43:55.232Z,65.94
2016-11-06T13:44:20.784Z,65.75
2016-11-06T13:44:46.352Z,65.75
2016-11-06T13:45:11.935Z,65.88
2016-11-06T13:45:37.506Z,65.88
2016-11-06T13:46:03.044Z,65.84
2016-11-06T13:46:28.617Z,65.84
2016-11-06T13:46:54.205Z,65.84
2016-11-06T13:47:19.748Z,65.94
2016-11-06T13:47:45.320Z,65.75
2016-11-06T13:48:10.918Z,66.03
2016-11-06T13:48:36.497Z,66.03
2016-11-06T13:49:02.200Z,66.07
2016-11-06T13:49:27.765Z,66.03
2016-11-06T13:49:53.331Z,66.03
2016-11-06T13:50:18.923Z,65.84
2016-11-06T13:50:44.491Z,66.03
2016-11-06T13:51:10.097Z,65.94
2016-11-06T13:51:35.661Z,66.13
2016-11-06T13:52:01.196Z,65.84
2016-11-06T13:52:26.769Z,66.13
2016-11-06T13:52:52.428Z,66.23
2016-11-06T13:53:17.982Z,66.13
2016-11-06T13:53:43.555Z,66.23
2016-11-06T13:54:09.232Z,66.03
2016-11-06T13:54:34.834Z,66.13
2016-11-06T13:55:00.382Z,65.97
2016-11-06T13:55:25.946Z,66.13
2016-11-06T13:55:51.635Z,66.13
2016-11-06T13:56:17.190Z,66.03
2016-11-06T13:56:42.872Z,66.03
2016-11-06T13:57:08.431Z,66.03
2016-11-06T13:57:34.012Z,66.03
2016-11-06T13:57:59.562Z,66.23
2016-11-06T13:58:25.204Z,66.23
2016-11-06T13:58:50.787Z,66.13
2016-11-06T13:59:16.360Z,66.16
2016-11-06T13:59:42.049Z,66.03
2016-11-06T14:00:07.624Z,66.03
2016-11-06T14:00:33.207Z,66.23
2016-11-06T14:00:58.840Z,66.16
2016-11-06T14:01:24.488Z,66.13
2016-11-06T14:01:50.058Z,66.03
2016-11-06T14:02:15.637Z,66.23
2016-11-06T14:02:41.191Z,66.13
2016-11-06T14:03:06.955Z,65.94
2016-11-06T14:03:32.521Z,66.13
2016-11-06T14:03:58.076Z,66.23
2016-11-06T14:04:23.645Z,66.13
2016-11-06T14:04:49.214Z,66.42
2016-11-06T14:05:14.764Z,66.33
2016-11-06T14:05:40.328Z,66.23
2016-11-06T14:06:05.960Z,66.23
2016-11-06T14:06:31.513Z,66.42
2016-11-06T14:06:57.113Z,66.52
2016-11-06T14:07:22.754Z,66.52
2016-11-06T14:07:48.287Z,66.71
2016-11-06T14:08:13.872Z,65.84
2016-11-06T14:08:39.441Z,66.52
2016-11-06T14:09:05.120Z,66.52
2016-11-06T14:09:30.699Z,66.61
2016-11-06T14:09:56.275Z,66.61
2016-11-06T14:10:21.850Z,66.61
2016-11-06T14:10:47.518Z,66.61
2016-11-06T14:11:13.087Z,66.71
2016-11-06T14:11:38.659Z,66.33
2016-11-06T14:12:04.298Z,66.23
2016-11-06T14:12:29.875Z,66.42
2016-11-06T14:12:55.450Z,66.33
2016-11-06T14:13:21.098Z,66.33
2016-11-06T14:13:46.660Z,66.33
2016-11-06T14:14:12.226Z,66.23
2016-11-06T14:14:37.891Z,66.33
2016-11-06T14:15:03.466Z,66.33
2016-11-06T14:15:29.042Z,66.61
2016-11-06T14:15:54.596Z,66.42
2016-11-06T14:16:20.173Z,66.23
2016-11-06T14:16:45.730Z,66.52
2016-11-06T14:17:11.335Z,66.52
2016-11-06T14:17:36.917Z,65.94
2016-11-06T14:18:02.490Z,66.13
2016-11-06T14:18:28.052Z,66.33
2016-11-06T14:18:53.680Z,66.52
2016-11-06T14:19:19.255Z,66.52
2016-11-06T14:19:44.890Z,66.42
2016-11-06T14:20:10.481Z,66.42
2016-11-06T14:20:36.048Z,66.03
2016-11-06T14:21:01.632Z,66.23
2016-11-06T14:21:27.229Z,66.52
2016-11-06T14:21:52.785Z,66.42
2016-11-06T14:22:18.356Z,66.42
2016-11-06T14:22:44.023Z,66.23
2016-11-06T14:23:09.578Z,66.42
2016-11-06T14:23:35.161Z,65.84
2016-11-06T14:24:00.765Z,66.33
2016-11-06T14:24:26.320Z,66.71
2016-11-06T14:24:51.906Z,66.71
2016-11-06T14:25:17.487Z,66.33
2016-11-06T14:25:43.037Z,66.33
2016-11-06T14:26:08.625Z,65.94
2016-11-06T14:26:34.197Z,66.42
2016-11-06T14:26:59.762Z,66.42
2016-11-06T14:27:25.329Z,66.33
2016-11-06T14:27:50.927Z,65.94
2016-11-06T14:28:16.677Z,66.33
2016-11-06T14:28:42.253Z,66.42
2016-11-06T14:29:07.876Z,66.33
2016-11-06T14:29:33.483Z,66.33
2016-11-06T14:29:59.109Z,66.23
2016-11-06T14:30:24.668Z,66.23
2016-11-06T14:30:50.223Z,66.33
2016-11-06T14:31:15.792Z,65.84
2016-11-06T14:31:41.338Z,66.42
2016-11-06T14:32:54.980Z,66.71
2016-11-06T14:33:20.528Z,66.52
2016-11-06T14:33:46.266Z,66.61
2016-11-06T14:34:11.846Z,66.52
2016-11-06T14:34:37.405Z,66.61
2016-11-06T14:35:02.978Z,66.33
2016-11-06T14:35:28.562Z,66.33
2016-11-06T14:35:54.134Z,66.61
2016-11-06T14:36:19.690Z,66.61
2016-11-06T14:36:45.282Z,66.33
2016-11-06T14:37:10.853Z,66.33
2016-11-06T14:37:36.500Z,66.61
2016-11-06T14:38:02.058Z,66.33
2016-11-06T14:38:27.612Z,66.71
2016-11-06T14:38:53.174Z,66.33
2016-11-06T14:39:18.749Z,66.42
2016-11-06T14:39:44.313Z,66.71
2016-11-06T14:40:09.876Z,66.61
2016-11-06T14:40:35.445Z,66.71
2016-11-06T14:41:01.070Z,66.71
2016-11-06T14:41:26.627Z,66.33
2016-11-06T14:41:52.196Z,66.52
2016-11-06T14:42:17.843Z,66.61
2016-11-06T14:42:43.496Z,66.52
2016-11-06T14:43:09.066Z,66.61
2016-11-06T14:43:34.611Z,66.8
2016-11-06T14:44:00.234Z,66.71
2016-11-06T14:44:25.821Z,66.8
2016-11-06T14:44:51.408Z,66.8
2016-11-06T14:45:16.978Z,66.42
2016-11-06T14:45:42.570Z,67
2016-11-06T14:46:08.131Z,66.52
2016-11-06T14:46:33.689Z,67
2016-11-06T14:46:59.258Z,67
2016-11-06T14:47:24.871Z,67.09
2016-11-06T14:47:50.439Z,67
2016-11-06T14:48:16.009Z,66.71
2016-11-06T14:48:41.558Z,66.61
2016-11-06T14:49:07.236Z,66.71
2016-11-06T14:49:32.841Z,66.71
2016-11-06T14:49:58.398Z,67
2016-11-06T14:50:23.956Z,66.9
2016-11-06T14:50:49.538Z,66.52
2016-11-06T14:51:15.090Z,66.8
2016-11-06T14:51:40.698Z,66.8
2016-11-06T14:52:06.264Z,66.8
2016-11-06T14:52:31.816Z,66.8
2016-11-06T14:52:57.379Z,66.33
2016-11-06T14:53:22.944Z,66.71
2016-11-06T14:53:48.508Z,67
2016-11-06T14:54:14.229Z,66.8
2016-11-06T14:54:39.782Z,66.8
2016-11-06T14:55:05.355Z,67
2016-11-06T14:55:30.969Z,66.61
2016-11-06T14:55:56.574Z,66.8
2016-11-06T14:56:22.148Z,66.8
2016-11-06T14:56:47.696Z,66.42
2016-11-06T14:57:13.266Z,66.8
2016-11-06T14:57:38.851Z,66.42
2016-11-06T14:58:04.436Z,67.19
2016-11-06T14:58:29.978Z,66.33
2016-11-06T14:58:55.562Z,66.42
2016-11-06T14:59:21.165Z,66.61
2016-11-06T14:59:46.759Z,66.9
2016-11-06T15:00:12.347Z,66.42
2016-11-06T15:00:37.927Z,66.42
2016-11-06T15:01:03.601Z,66.52
2016-11-06T15:01:29.182Z,66.33
2016-11-06T15:01:54.789Z,66.9
2016-11-06T15:02:20.421Z,66.42
2016-11-06T15:02:45.990Z,66.9
2016-11-06T15:03:11.547Z,66.9
2016-11-06T15:03:37.127Z,66.13
2016-11-06T15:04:02.650Z,66.61
2016-11-06T15:04:28.232Z,66.13
2016-11-06T15:04:53.819Z,66.23
2016-11-06T15:05:19.398Z,66.8
2016-11-06T15:05:44.995Z,66.61
2016-11-06T15:06:10.574Z,66.52
2016-11-06T15:06:36.169Z,66.42
2016-11-06T15:07:01.792Z,66.52
2016-11-06T15:07:27.391Z,66.42
2016-11-06T15:07:52.950Z,66.42
2016-11-06T15:08:18.539Z,66.42
2016-11-06T15:08:44.132Z,66.71
2016-11-06T15:09:09.730Z,66.8
2016-11-06T15:09:35.312Z,66.42
2016-11-06T15:10:00.881Z,66.61
2016-11-06T15:10:26.466Z,66.61
2016-11-06T15:10:52.061Z,66.71
2016-11-06T15:11:17.707Z,67
2016-11-06T15:11:43.365Z,66.71
2016-11-06T15:12:08.938Z,66.71
2016-11-06T15:12:34.508Z,66.61
2016-11-06T15:13:00.176Z,66.8
2016-11-06T15:13:25.800Z,66.8
2016-11-06T15:13:51.363Z,67
2016-11-06T15:14:16.921Z,66.71
2016-11-06T15:14:42.578Z,66.8
2016-11-06T15:15:08.137Z,66.42
2016-11-06T15:15:33.704Z,66.61
2016-11-06T15:15:59.253Z,66.61
2016-11-06T15:16:24.825Z,66.71
2016-11-06T15:16:50.379Z,66.71
2016-11-06T15:17:15.945Z,67.09
2016-11-06T15:17:41.540Z,67.09
2016-11-06T15:18:07.081Z,66.8
2016-11-06T15:18:32.674Z,67.19
2016-11-06T15:18:58.257Z,66.8
2016-11-06T15:19:23.831Z,67.29
2016-11-06T15:19:49.425Z,67.09
2016-11-06T15:20:14.983Z,66.8
2016-11-06T15:20:40.554Z,67.19
2016-11-06T15:21:06.122Z,66.8
2016-11-06T15:21:31.690Z,66.9
2016-11-06T15:21:57.365Z,66.9
2016-11-06T15:22:22.932Z,66.9
2016-11-06T15:22:48.466Z,66.9
2016-11-06T15:23:14.040Z,66.9
2016-11-06T15:23:39.616Z,66.9
2016-11-06T15:24:05.173Z,66.61
2016-11-06T15:24:30.746Z,66.9
2016-11-06T15:24:56.293Z,66.8
2016-11-06T15:25:21.865Z,67
2016-11-06T15:25:47.419Z,66.9
2016-11-06T15:26:12.989Z,66.8
2016-11-06T15:26:38.560Z,66.9
2016-11-06T15:27:04.124Z,66.8
2016-11-06T15:27:29.712Z,66.71
2016-11-06T15:27:55.322Z,66.9
2016-11-06T15:28:20.911Z,66.8
2016-11-06T15:28:46.470Z,66.9
2016-11-06T15:29:12.088Z,66.8
2016-11-06T15:29:37.656Z,66.9
2016-11-06T15:30:03.261Z,66.9
2016-11-06T15:30:28.823Z,66.8
2016-11-06T15:30:54.387Z,66.8
2016-11-06T15:31:19.953Z,66.8
2016-11-06T15:31:45.510Z,66.9
2016-11-06T15:32:11.078Z,66.8
2016-11-06T15:32:36.645Z,66.8
2016-11-06T15:33:02.280Z,66.9
2016-11-06T15:33:27.880Z,67
2016-11-06T15:33:53.464Z,66.96
2016-11-06T15:34:19.053Z,66.9
2016-11-06T15:34:44.630Z,66.9
2016-11-06T15:35:10.205Z,67.09
2016-11-06T15:35:35.772Z,66.9
2016-11-06T15:36:01.367Z,67
2016-11-06T15:36:26.965Z,67
2016-11-06T15:36:52.575Z,67
2016-11-06T15:38:01.017Z,67
2016-11-06T15:38:26.601Z,66.9
2016-11-06T15:38:52.175Z,66.8
2016-11-06T15:39:17.755Z,67
2016-11-06T15:39:43.316Z,67
2016-11-06T15:40:08.899Z,66.9
2016-11-06T15:40:34.477Z,67
2016-11-06T15:41:00.137Z,67
2016-11-06T15:41:25.680Z,67
2016-11-06T15:41:51.234Z,66.8
2016-11-06T15:42:16.908Z,66.96
2016-11-06T15:42:42.479Z,66.9
2016-11-06T15:43:08.044Z,67
2016-11-06T15:43:33.625Z,67
2016-11-06T15:43:59.322Z,66.8
2016-11-06T15:44:24.908Z,66.9
2016-11-06T15:44:50.496Z,67
2016-11-06T15:45:16.068Z,66.8
2016-11-06T15:45:41.726Z,66.8
2016-11-06T15:46:07.339Z,67
2016-11-06T15:46:32.949Z,67
2016-11-06T15:46:58.562Z,66.8
2016-11-06T15:47:24.091Z,66.9
2016-11-06T15:47:49.692Z,67
2016-11-06T15:48:15.300Z,66.8
2016-11-06T15:48:40.871Z,66.8
2016-11-06T15:49:06.458Z,66.8
2016-11-06T15:49:32.062Z,66.77
2016-11-06T15:49:57.606Z,66.9
2016-11-06T15:50:23.198Z,67
2016-11-06T15:50:48.843Z,66.71
2016-11-06T15:51:14.393Z,66.8
2016-11-06T15:51:39.965Z,66.61
2016-11-06T15:52:05.541Z,66.67
2016-11-06T15:52:31.133Z,66.77
2016-11-06T15:52:56.702Z,66.67
2016-11-06T15:53:22.392Z,66.8
2016-11-06T15:53:47.998Z,66.9
2016-11-06T15:54:13.560Z,66.9
2016-11-06T15:54:39.135Z,66.9
2016-11-06T15:55:04.733Z,66.67
2016-11-06T15:55:30.292Z,67
2016-11-06T15:55:55.873Z,66.96
2016-11-06T15:56:21.555Z,67.06
2016-11-06T15:56:47.131Z,67.09
2016-11-06T15:57:12.706Z,67.09
2016-11-06T15:57:38.281Z,66.8
2016-11-06T15:58:03.869Z,67.25
2016-11-06T15:58:29.515Z,66.8
2016-11-06T15:58:55.154Z,66.8
2016-11-06T15:59:20.711Z,66.77
2016-11-06T15:59:46.278Z,66.67
2016-11-06T16:00:11.851Z,67.29
2016-11-06T16:00:37.413Z,66.8
2016-11-06T16:01:02.989Z,66.77
2016-11-06T16:01:28.545Z,67.29
2016-11-06T16:01:54.096Z,66.71
2016-11-06T16:02:19.669Z,67.25
2016-11-06T16:03:28.025Z,66.8
2016-11-06T16:03:53.584Z,67.09
2016-11-06T16:06:01.021Z,67.19
2016-11-06T16:06:26.586Z,66.96
2016-11-06T16:06:52.138Z,67.19
2016-11-06T16:07:17.678Z,67
2016-11-06T16:07:43.241Z,66.9
2016-11-06T16:08:08.809Z,67.09
2016-11-06T16:08:34.371Z,66.77
2016-11-06T16:09:00.001Z,67.19
2016-11-06T16:09:25.581Z,67.09
2016-11-06T16:09:51.168Z,66.9
2016-11-06T16:10:16.743Z,67.09
2016-11-06T16:10:42.325Z,67.06
2016-11-06T16:11:07.894Z,67.09
2016-11-06T16:11:33.441Z,66.86
2016-11-06T16:11:59.010Z,66.96
2016-11-06T16:12:24.588Z,66.9
2016-11-06T16:12:50.169Z,66.9
2016-11-06T16:13:15.732Z,67.25
2016-11-06T16:13:41.339Z,66.9
2016-11-06T16:14:06.883Z,67.09
2016-11-06T16:14:32.456Z,66.86
2016-11-06T16:14:58.034Z,67.16
2016-11-06T16:15:23.608Z,66.61
2016-11-06T16:15:49.166Z,66.71
2016-11-06T16:16:14.783Z,66.67
2016-11-06T16:16:40.354Z,67.09
2016-11-06T16:17:05.907Z,67.06
2016-11-06T16:18:14.264Z,67.06
2016-11-06T16:18:39.932Z,66.77
2016-11-06T16:19:05.556Z,66.8
2016-11-06T16:19:31.136Z,67.09
2016-11-06T16:19:56.698Z,67
2016-11-06T16:20:22.262Z,67.09
2016-11-06T16:20:47.861Z,67.25
2016-11-06T16:21:13.402Z,67.19
2016-11-06T16:21:39.025Z,66.86
2016-11-06T16:22:04.565Z,66.86
2016-11-06T16:22:30.136Z,67.06
2016-11-06T16:22:55.696Z,67.16
2016-11-06T16:24:09.248Z,67.09
2016-11-06T16:24:34.796Z,66.77
2016-11-06T16:25:00.378Z,67.06
2016-11-06T16:25:25.999Z,67
2016-11-06T16:25:51.564Z,67
2016-11-06T16:26:17.130Z,67.19
2016-11-06T16:26:42.687Z,67.09
2016-11-06T16:27:08.280Z,67.19
2016-11-06T16:27:33.858Z,66.8
2016-11-06T16:27:59.451Z,66.86
2016-11-06T16:28:25.012Z,67.16
2016-11-06T16:28:50.626Z,66.96
2016-11-06T16:29:16.288Z,67
2016-11-06T16:29:41.858Z,66.96
2016-11-06T16:30:07.445Z,67
2016-11-06T16:30:33.092Z,67.06
2016-11-06T16:30:58.665Z,66.86
2016-11-06T16:31:24.275Z,67.09
2016-11-06T16:31:49.853Z,67.06
2016-11-06T16:32:15.403Z,67.09
2016-11-06T16:32:40.963Z,67.09
2016-11-06T16:33:06.567Z,67.06
2016-11-06T16:33:32.127Z,67.06
2016-11-06T16:33:57.691Z,67.09
2016-11-06T16:34:23.273Z,67.06
2016-11-06T16:34:48.857Z,66.96
2016-11-06T16:35:14.406Z,66.96
2016-11-06T16:35:39.990Z,67
2016-11-06T16:36:05.573Z,66.96
2016-11-06T16:36:31.140Z,67.25
2016-11-06T16:36:56.706Z,66.96
2016-11-06T16:37:22.368Z,67.06
2016-11-06T16:37:47.917Z,67.09
2016-11-06T16:38:13.502Z,67
2016-11-06T16:38:39.079Z,67
2016-11-06T16:39:04.634Z,67.09
2016-11-06T16:39:30.186Z,66.96
2016-11-06T16:39:55.755Z,67.06
2016-11-06T16:40:21.317Z,66.86
2016-11-06T16:40:47.008Z,66.86
2016-11-06T16:41:12.616Z,67.06
2016-11-06T16:41:38.181Z,66.96
2016-11-06T16:42:03.740Z,67.06
2016-11-06T16:42:29.308Z,66.96
2016-11-06T16:42:54.880Z,66.96
2016-11-06T16:43:20.451Z,66.86
2016-11-06T16:43:46.048Z,67.38
2016-11-06T16:44:11.615Z,66.9
2016-11-06T16:44:37.191Z,67.06
2016-11-06T16:45:02.750Z,67.06
2016-11-06T16:45:28.378Z,67.06
2016-11-06T16:45:54.060Z,67.06
2016-11-06T16:46:19.645Z,67.09